createdAt,value
2018-04-14T00:01:22.565Z,20.10
2018-04-14T00:03:52.764Z,20.00
2018-04-14T00:06:22.190Z,20.00
2018-04-14T00:08:51.683Z,20.00
2018-04-14T00:11:21.839Z,20.10
2018-04-14T00:13:51.363Z,20.20
2018-04-14T00:16:20.940Z,20.20
2018-04-14T00:18:50.381Z,20.00
2018-04-14T00:21:19.854Z,19.90
2018-04-14T00:23:49.489Z,19.90
2018-04-14T00:26:19.491Z,19.90
2018-04-14T00:28:48.983Z,20.00
2018-04-14T00:31:42.671Z,20.00
2018-04-14T00:34:12.616Z,20.00
2018-04-14T00:36:42.055Z,19.90
2018-04-14T00:39:11.607Z,19.90
2018-04-14T00:41:41.276Z,20.00
2018-04-14T00:44:10.650Z,20.00
2018-04-14T00:46:40.020Z,20.00
2018-04-14T00:49:10.252Z,20.10
2018-04-14T00:51:40.364Z,20.00
2018-04-14T00:54:09.810Z,20.00
2018-04-14T00:56:39.169Z,20.00
2018-04-14T00:59:08.585Z,19.90
2018-04-14T01:01:38.019Z,19.90
2018-04-14T01:04:07.399Z,19.90
2018-04-14T01:06:37.371Z,19.80
2018-04-14T01:09:07.932Z,19.60
2018-04-14T01:11:37.467Z,19.60
2018-04-14T01:14:06.824Z,19.60
2018-04-14T01:16:36.284Z,19.50
2018-04-14T01:19:05.639Z,19.60
2018-04-14T01:21:35.011Z,19.50
2018-04-14T01:24:04.454Z,19.40
2018-04-14T01:26:33.811Z,19.40
2018-04-14T01:29:03.175Z,19.30
2018-04-14T01:31:32.860Z,19.40
2018-04-14T01:34:02.218Z,19.30
2018-04-14T01:36:32.268Z,19.30
2018-04-14T01:39:02.681Z,19.40
2018-04-14T01:41:32.195Z,19.30
2018-04-14T01:44:03.931Z,19.30
2018-04-14T01:46:33.280Z,19.30
2018-04-14T01:49:02.621Z,19.30
2018-04-14T01:51:32.027Z,19.30
2018-04-14T01:54:01.372Z,19.20
2018-04-14T01:56:30.693Z,19.20
2018-04-14T01:59:00.142Z,19.20
2018-04-14T02:01:29.478Z,19.30
2018-04-14T02:03:58.816Z,19.20
2018-04-14T02:06:28.269Z,19.20
2018-04-14T02:08:58.724Z,19.10
2018-04-14T02:11:28.324Z,19.10
2018-04-14T02:13:57.755Z,19.20
2018-04-14T02:16:27.103Z,19.20
2018-04-14T02:18:56.494Z,19.20
2018-04-14T02:21:25.846Z,19.10
2018-04-14T02:23:55.195Z,19.10
2018-04-14T02:26:24.566Z,19.10
2018-04-14T02:28:54.659Z,19.00
2018-04-14T02:31:24.050Z,19.00
2018-04-14T02:33:55.339Z,18.90
2018-04-14T02:36:24.801Z,18.90
2018-04-14T02:38:54.173Z,18.90
2018-04-14T02:41:23.544Z,18.90
2018-04-14T02:43:52.967Z,18.90
2018-04-14T02:46:22.327Z,18.90
2018-04-14T02:48:51.699Z,18.90
2018-04-14T02:51:23.736Z,18.90
2018-04-14T02:53:53.070Z,18.80
2018-04-14T02:56:22.540Z,18.70
2018-04-14T02:58:52.028Z,18.70
2018-04-14T03:01:21.397Z,18.60
2018-04-14T03:03:50.792Z,18.60
2018-04-14T03:06:20.827Z,18.60
2018-04-14T03:08:50.408Z,18.60
2018-04-14T03:11:20.504Z,18.50
2018-04-14T03:13:50.818Z,18.50
2018-04-14T03:16:20.765Z,18.40
2018-04-14T03:18:51.083Z,18.30
2018-04-14T03:21:21.138Z,18.30
2018-04-14T03:23:50.505Z,18.30
2018-04-14T03:26:20.141Z,18.30
2018-04-14T03:28:49.583Z,18.30
2018-04-14T03:31:19.367Z,18.30
2018-04-14T03:33:48.937Z,18.30
2018-04-14T03:36:18.432Z,18.30
2018-04-14T03:38:50.543Z,18.20
2018-04-14T03:44:41.705Z,18.20
2018-04-14T03:47:11.138Z,18.20
2018-04-14T03:49:40.878Z,18.20
2018-04-14T03:52:11.118Z,18.30
2018-04-14T03:55:23.867Z,18.30
2018-04-14T03:57:53.324Z,18.30
2018-04-14T04:00:23.494Z,18.30
2018-04-14T04:02:54.095Z,18.30
2018-04-14T04:05:26.384Z,18.30
2018-04-14T04:07:55.771Z,18.20
2018-04-14T04:10:25.153Z,18.20
2018-04-14T04:12:55.216Z,18.10
2018-04-14T04:15:28.836Z,18.10
2018-04-14T04:17:59.958Z,18.10
2018-04-14T04:20:54.069Z,18.10
2018-04-14T04:23:48.771Z,18.10
2018-04-14T04:26:18.169Z,18.10
2018-04-14T04:28:47.555Z,18.10
2018-04-14T04:31:16.861Z,18.10
2018-04-14T04:33:47.479Z,18.10
2018-04-14T04:36:16.883Z,18.20
2018-04-14T04:38:52.842Z,18.20
2018-04-14T04:41:23.191Z,18.20
2018-04-14T04:43:53.794Z,18.20
2018-04-14T04:46:25.231Z,18.20
2018-04-14T04:49:01.295Z,18.20
2018-04-14T04:51:31.253Z,18.20
2018-04-14T04:54:01.529Z,18.30
2018-04-14T04:56:31.399Z,18.20
2018-04-14T04:59:01.385Z,18.20
2018-04-14T05:01:30.920Z,18.20
2018-04-14T05:06:36.450Z,18.20
2018-04-14T05:09:09.340Z,18.20
2018-04-14T05:14:21.742Z,18.00
2018-04-14T05:16:51.117Z,18.00
2018-04-14T05:19:20.528Z,18.00
2018-04-14T05:21:57.895Z,17.90
2018-04-14T05:24:30.042Z,17.90
2018-04-14T05:27:02.814Z,17.90
2018-04-14T05:29:34.018Z,17.90
2018-04-14T05:32:03.833Z,17.90
2018-04-14T05:34:33.274Z,17.90
2018-04-14T05:37:04.312Z,17.80
2018-04-14T05:39:37.452Z,17.80
2018-04-14T05:42:06.860Z,17.80
2018-04-14T05:44:36.277Z,17.90
2018-04-14T05:47:07.272Z,17.90
2018-04-14T05:49:36.712Z,17.80
2018-04-14T05:52:06.791Z,17.90
2018-04-14T05:54:36.258Z,17.80
2018-04-14T05:57:05.771Z,17.80
2018-04-14T05:59:35.886Z,17.90
2018-04-14T06:02:05.465Z,17.80
2018-04-14T06:04:38.871Z,17.80
2018-04-14T06:07:08.199Z,17.70
2018-04-14T06:09:37.656Z,17.70
2018-04-14T06:12:09.124Z,17.90
2018-04-14T06:14:40.081Z,17.90
2018-04-14T06:17:10.002Z,17.80
2018-04-14T06:23:01.724Z,17.90
2018-04-14T06:25:32.537Z,17.90
2018-04-14T06:28:03.067Z,18.00
2018-04-14T06:33:56.477Z,17.90
2018-04-14T06:36:26.111Z,18.00
2018-04-14T06:38:56.804Z,18.00
2018-04-14T06:41:27.356Z,18.00
2018-04-14T06:43:58.489Z,18.00
2018-04-14T06:49:58.596Z,18.00
2018-04-14T06:52:28.153Z,18.00
2018-04-14T06:55:00.469Z,18.00
2018-04-14T06:57:29.930Z,18.00
2018-04-14T07:00:00.765Z,18.00
2018-04-14T07:02:30.985Z,17.80
2018-04-14T07:05:00.582Z,17.80
2018-04-14T07:07:30.034Z,17.80
2018-04-14T07:10:01.294Z,17.80
2018-04-14T07:12:30.890Z,17.80
2018-04-14T07:15:01.109Z,17.80
2018-04-14T07:17:41.825Z,17.80
2018-04-14T07:20:11.346Z,17.80
2018-04-14T07:22:40.821Z,17.80
2018-04-14T07:25:10.272Z,17.80
2018-04-14T07:27:39.649Z,17.80
2018-04-14T07:30:13.332Z,17.80
2018-04-14T07:32:42.747Z,17.80
2018-04-14T07:35:12.232Z,17.80
2018-04-14T07:37:41.674Z,17.80
2018-04-14T07:40:11.912Z,17.80
2018-04-14T07:42:41.909Z,17.70
2018-04-14T07:45:11.284Z,17.70
2018-04-14T07:47:47.582Z,17.70
2018-04-14T07:50:17.044Z,17.70
2018-04-14T07:52:46.509Z,17.70
2018-04-14T07:55:15.977Z,17.70
2018-04-14T07:57:45.549Z,17.70
2018-04-14T08:00:15.078Z,17.80
2018-04-14T08:02:44.572Z,17.80
2018-04-14T08:05:13.932Z,17.90
2018-04-14T08:07:43.515Z,17.90
2018-04-14T08:10:12.924Z,18.00
2018-04-14T08:12:42.373Z,18.00
2018-04-14T08:15:12.339Z,18.00
2018-04-14T08:17:42.660Z,18.00
2018-04-14T08:20:12.110Z,17.90
2018-04-14T08:22:42.255Z,17.80
2018-04-14T08:25:11.587Z,17.80
2018-04-14T08:27:41.134Z,17.80
2018-04-14T08:30:45.721Z,17.90
2018-04-14T08:33:15.948Z,17.90
2018-04-14T08:35:46.352Z,18.00
2018-04-14T08:38:16.161Z,18.00
2018-04-14T08:40:46.584Z,18.00
2018-04-14T08:43:16.320Z,18.00
2018-04-14T08:45:47.423Z,17.90
2018-04-14T08:48:16.826Z,17.90
2018-04-14T08:50:46.523Z,18.00
2018-04-14T08:53:17.009Z,18.00
2018-04-14T08:55:46.426Z,17.90
2018-04-14T08:58:15.920Z,17.90
2018-04-14T09:00:45.696Z,17.90
2018-04-14T09:03:15.153Z,17.80
2018-04-14T09:05:44.708Z,17.70
2018-04-14T09:08:14.317Z,17.70
2018-04-14T09:10:43.804Z,17.60
2018-04-14T09:13:14.121Z,17.60
2018-04-14T09:15:43.474Z,17.60
2018-04-14T09:18:12.970Z,17.60
2018-04-14T09:20:42.522Z,17.50
2018-04-14T09:23:11.987Z,17.50
2018-04-14T09:25:41.401Z,17.60
2018-04-14T09:28:10.992Z,17.50
2018-04-14T09:30:40.403Z,17.50
2018-04-14T09:33:09.763Z,17.50
2018-04-14T09:35:39.333Z,17.50
2018-04-14T09:38:08.701Z,17.40
2018-04-14T09:40:38.135Z,17.40
2018-04-14T09:43:07.593Z,17.30
2018-04-14T09:45:37.118Z,17.30
2018-04-14T09:48:06.569Z,17.30
2018-04-14T09:50:36.028Z,17.30
2018-04-14T09:53:05.498Z,17.30
2018-04-14T09:55:35.713Z,17.20
2018-04-14T09:58:05.988Z,17.20
2018-04-14T10:00:50.115Z,17.20
2018-04-14T10:03:25.442Z,17.20
2018-04-14T10:05:54.967Z,17.20
2018-04-14T10:08:24.369Z,17.10
2018-04-14T10:14:14.799Z,17.00
2018-04-14T10:16:45.078Z,17.00
2018-04-14T10:19:15.276Z,16.90
2018-04-14T10:21:44.763Z,17.00
2018-04-14T10:24:14.174Z,17.00
2018-04-14T10:26:43.602Z,17.00
2018-04-14T10:29:13.033Z,17.00
2018-04-14T10:31:42.532Z,16.90
2018-04-14T10:34:11.992Z,16.90
2018-04-14T10:36:41.519Z,16.90
2018-04-14T10:39:27.207Z,16.80
2018-04-14T10:41:57.085Z,16.80
2018-04-14T10:44:30.077Z,16.80
2018-04-14T10:47:01.068Z,16.80
2018-04-14T10:49:33.119Z,16.70
2018-04-14T10:52:03.866Z,16.80
2018-04-14T10:57:56.345Z,16.70
2018-04-14T11:00:27.047Z,16.70
2018-04-14T11:02:57.505Z,16.70
2018-04-14T11:05:28.238Z,16.70
2018-04-14T11:07:58.821Z,16.70
2018-04-14T11:10:29.230Z,16.70
2018-04-14T11:12:58.642Z,16.80
2018-04-14T11:15:28.703Z,16.80
2018-04-14T11:18:00.703Z,16.80
2018-04-14T11:20:30.193Z,16.70
2018-04-14T11:22:59.788Z,16.80
2018-04-14T11:25:29.258Z,16.80
2018-04-14T11:27:59.817Z,16.80
2018-04-14T11:30:29.257Z,16.80
2018-04-14T11:32:59.366Z,16.90
2018-04-14T11:38:50.945Z,16.80
2018-04-14T11:41:20.362Z,16.80
2018-04-14T11:43:49.811Z,16.80
2018-04-14T11:46:20.784Z,16.80
2018-04-14T11:48:50.211Z,16.80
2018-04-14T11:51:20.293Z,16.80
2018-04-14T11:53:49.791Z,16.80
2018-04-14T11:56:20.975Z,16.80
2018-04-14T11:58:58.902Z,16.80
2018-04-14T12:01:38.920Z,16.80
2018-04-14T12:04:08.371Z,16.80
2018-04-14T12:06:38.488Z,16.80
2018-04-14T12:09:07.980Z,16.70
2018-04-14T12:11:37.373Z,16.80
2018-04-14T12:14:07.787Z,16.80
2018-04-14T12:16:37.172Z,16.80
2018-04-14T12:19:06.688Z,16.90
2018-04-14T12:21:36.192Z,17.00
2018-04-14T12:27:30.287Z,17.40
2018-04-14T12:30:01.077Z,17.70
2018-04-14T12:32:38.197Z,17.70
2018-04-14T12:35:09.618Z,17.80
2018-04-14T12:37:39.079Z,17.80
2018-04-14T12:40:14.260Z,18.00
2018-04-14T12:42:50.428Z,18.10
2018-04-14T12:45:24.748Z,18.20
2018-04-14T12:47:54.287Z,18.40
2018-04-14T12:50:23.831Z,18.50
2018-04-14T12:52:53.168Z,18.60
2018-04-14T12:55:25.718Z,18.70
2018-04-14T12:57:55.695Z,18.90
2018-04-14T13:00:28.525Z,18.90
2018-04-14T13:03:00.378Z,19.10
2018-04-14T13:05:32.956Z,19.30
2018-04-14T13:08:02.955Z,19.40
2018-04-14T13:10:53.465Z,19.40
2018-04-14T13:13:22.798Z,19.60
2018-04-14T13:15:58.326Z,19.70
2018-04-14T13:18:27.898Z,19.70
2018-04-14T13:20:59.646Z,19.70
2018-04-14T13:23:32.233Z,19.80
2018-04-14T13:26:05.538Z,20.10
2018-04-14T13:28:36.442Z,20.10
2018-04-14T13:31:09.043Z,20.20
2018-04-14T13:33:43.497Z,20.60
2018-04-14T13:36:17.014Z,20.50
2018-04-14T13:38:54.105Z,20.60
2018-04-14T13:41:31.038Z,20.50
2018-04-14T13:44:01.545Z,20.50
2018-04-14T13:46:31.934Z,20.70
2018-04-14T13:49:06.580Z,20.70
2018-04-14T13:51:39.189Z,20.90
2018-04-14T13:56:53.293Z,21.20
2018-04-14T13:59:25.555Z,21.20
2018-04-14T14:01:59.894Z,21.20
2018-04-14T14:04:32.299Z,21.20
2018-04-14T14:07:08.375Z,21.20
2018-04-14T14:09:45.273Z,21.40
2018-04-14T14:12:23.687Z,21.60
2018-04-14T14:18:11.587Z,22.00
2018-04-14T14:21:32.736Z,22.30
2018-04-14T14:24:02.540Z,22.20
2018-04-14T14:26:32.072Z,22.40
2018-04-14T14:29:01.614Z,22.40
2018-04-14T14:31:31.866Z,22.40
2018-04-14T14:34:01.384Z,22.50
2018-04-14T22:56:08.118Z,22.70
2018-04-14T22:58:37.800Z,22.60
2018-04-14T23:01:07.320Z,22.70
2018-04-14T23:03:36.937Z,22.50
2018-04-14T23:06:12.324Z,22.40
2018-04-14T23:12:02.901Z,22.40
2018-04-14T23:14:32.182Z,22.20
2018-04-14T23:17:03.221Z,22.10
2018-04-14T23:19:37.753Z,22.20
2018-04-14T23:25:28.292Z,21.90
2018-04-14T23:27:57.648Z,21.60
2018-04-14T23:30:26.965Z,21.40
2018-04-14T23:33:01.354Z,21.30
2018-04-14T23:35:31.252Z,21.30
2018-04-14T23:38:02.172Z,21.20
2018-04-14T23:40:31.633Z,21.10
2018-04-14T23:43:02.710Z,21.00
2018-04-14T23:45:34.286Z,20.90
2018-04-14T23:48:05.176Z,20.50
2018-04-14T23:50:34.480Z,20.50
2018-04-14T23:53:03.898Z,20.50
2018-04-14T23:55:33.274Z,20.30
2018-04-14T23:58:07.164Z,20.20
